Wind From: 13-12-2017 10:08 Until: 14-12-2017 06:00 warning for: Wind Level: Yellow info button

Although rather usual in this region, locally or potentially dangerous phenomena are expected. (such as local winds, summer thunderstorms, rising streams or high waves) Be aware and pay attention to the latest weather updates, especially if you carry out activities exposed to weather or close to a stream or shoreline. 


Meteo18 Weather Cam more information Meteo18 Weather Cam


Thunder radar more information blitzortung!


Rain radar more information rain snow radar


Visit our other weather sites:

Template documentation
and downloads

And another site



Weather Underground History page Text

Daily Summary for February 6, 2016 Units:  Metric    English   Both
« Previous Day
Next Day »
Daily Weekly Monthly Yearly Custom
  High: Low: Average:
Temperature: 15.4 °C 2.2 °C 8.3 °C
Dew Point: 9.2 °C 1.8 °C 5.4 °C
Humidity: 99 % 59 % 83 %
Wind Speed: 14.5 km/h 0.0 km/h 1.8 km/h
Wind Gust: 32.2 km/h - -
Wind:- - WSW
Pressure: 1018.8 hPa 1001.2 hPa -
Precipitation: 0.3 mm    
Historical Graphs
 
 
Tabular Data for February 6, 2016
Time Temperature Dew Point Pressure Wind Wind Speed Wind Gust Humidity Rainfall Rate (Hourly)
00:02 4.0 °C 3.7 °C 1018.8 hPa Calm     98 % 0.0 mm
00:07 4.1 °C 3.8 °C 1018.8 hPa Calm     98 % 0.0 mm
00:12 4.1 °C 3.8 °C 1018.8 hPa Calm     98 % 0.0 mm
00:17 4.0 °C 3.7 °C 1018.8 hPa Calm     98 % 0.0 mm
00:22 3.9 °C 3.6 °C 1018.8 hPa Calm     98 % 0.0 mm
00:27 4.1 °C 3.8 °C 1018.8 hPa Calm     98 % 0.0 mm
00:32 4.4 °C 4.1 °C 1018.8 hPa Calm     98 % 0.0 mm
00:42 4.6 °C 4.3 °C 1018.8 hPa Calm     98 % 0.0 mm
00:47 4.6 °C 4.3 °C 1018.8 hPa Calm     98 % 0.0 mm
00:52 4.4 °C 4.1 °C 1018.8 hPa Calm     98 % 0.0 mm
00:57 4.3 °C 4.0 °C 1018.8 hPa Calm     98 % 0.0 mm
01:02 4.2 °C 3.9 °C 1018.8 hPa Calm     98 % 0.0 mm
01:07 4.1 °C 3.8 °C 1018.5 hPa Calm     98 % 0.0 mm
01:12 3.9 °C 3.6 °C 1018.5 hPa Calm     98 % 0.0 mm
01:17 3.8 °C 3.5 °C 1018.5 hPa Calm     98 % 0.0 mm
01:22 3.7 °C 3.4 °C 1018.5 hPa Calm     98 % 0.0 mm
01:27 3.7 °C 3.4 °C 1018.5 hPa Calm     98 % 0.0 mm
01:32 3.6 °C 3.3 °C 1018.5 hPa Calm     98 % 0.0 mm
01:37 3.7 °C 3.4 °C 1018.2 hPa Calm     98 % 0.3 mm
01:42 3.7 °C 3.4 °C 1018.2 hPa Calm     98 % 0.3 mm
01:57 3.3 °C 3.0 °C 1018.2 hPa Calm     98 % 0.3 mm
02:02 3.2 °C 2.9 °C 1018.2 hPa Calm     98 % 0.3 mm
02:07 3.2 °C 2.9 °C 1018.2 hPa Calm     98 % 0.3 mm
02:12 3.1 °C 2.8 °C 1018.2 hPa Calm     98 % 0.3 mm
02:17 3.1 °C 2.8 °C 1017.8 hPa Calm     98 % 0.3 mm
02:22 2.9 °C 2.6 °C 1017.8 hPa Calm     98 % 0.3 mm
02:27 3.0 °C 2.7 °C 1018.2 hPa Calm     98 % 0.3 mm
02:32 3.0 °C 2.7 °C 1017.8 hPa Calm     98 % 0.3 mm
02:37 2.9 °C 2.6 °C 1017.8 hPa Calm     98 % 0.0 mm
02:42 3.1 °C 2.8 °C 1017.8 hPa Calm     98 % 0.0 mm
02:47 3.2 °C 2.9 °C 1017.8 hPa Calm     98 % 0.0 mm
02:52 3.2 °C 2.9 °C 1017.8 hPa Calm     98 % 0.0 mm
02:57 3.3 °C 3.0 °C 1017.8 hPa Calm     98 % 0.0 mm
03:02 3.2 °C 2.9 °C 1017.8 hPa Calm     98 % 0.0 mm
03:07 3.3 °C 3.0 °C 1017.8 hPa Calm     98 % 0.0 mm
03:12 3.3 °C 3.0 °C 1017.8 hPa Calm     98 % 0.0 mm
03:17 3.3 °C 3.0 °C 1017.5 hPa Calm     98 % 0.0 mm
03:22 3.3 °C 3.0 °C 1017.5 hPa Calm     98 % 0.0 mm
03:27 3.3 °C 3.0 °C 1017.5 hPa Calm     98 % 0.0 mm
03:32 3.3 °C 3.0 °C 1017.5 hPa Calm     98 % 0.0 mm
03:37 3.3 °C 3.0 °C 1017.5 hPa Calm     98 % 0.0 mm
03:42 3.2 °C 2.9 °C 1017.5 hPa Calm   1.6 km/h 98 % 0.0 mm
03:47 3.2 °C 2.9 °C 1017.2 hPa Calm   1.6 km/h 98 % 0.0 mm
03:52 3.1 °C 2.8 °C 1017.2 hPa Calm   1.6 km/h 98 % 0.0 mm
03:57 3.2 °C 2.9 °C 1017.5 hPa Calm   1.6 km/h 98 % 0.0 mm
04:02 3.2 °C 2.9 °C 1017.5 hPa Calm   1.6 km/h 98 % 0.0 mm
04:12 3.3 °C 3.0 °C 1017.5 hPa Calm     98 % 0.0 mm
04:17 3.4 °C 3.1 °C 1017.5 hPa Calm     98 % 0.0 mm
04:22 3.3 °C 3.0 °C 1017.2 hPa Calm     98 % 0.0 mm
04:37 3.5 °C 3.2 °C 1017.8 hPa Calm     98 % 0.0 mm
04:42 3.6 °C 3.3 °C 1017.8 hPa Calm     98 % 0.0 mm
04:47 3.7 °C 3.4 °C 1017.8 hPa Calm     98 % 0.0 mm
04:52 3.9 °C 3.6 °C 1017.8 hPa Calm     98 % 0.0 mm
05:02 4.4 °C 4.3 °C 1017.8 hPa SW 1.6 km/h 3.2 km/h 99 % 0.0 mm
05:12 4.2 °C 3.9 °C 1017.8 hPa WSW 1.6 km/h 3.2 km/h 98 % 0.0 mm
05:17 4.3 °C 4.0 °C 1017.5 hPa WSW 6.4 km/h 6.4 km/h 98 % 0.0 mm
05:22 4.8 °C 4.5 °C 1017.5 hPa Calm   8.0 km/h 98 % 0.0 mm
05:32 4.6 °C 4.3 °C 1017.5 hPa Calm   8.0 km/h 98 % 0.0 mm
05:37 4.6 °C 4.2 °C 1017.5 hPa Calm   3.2 km/h 97 % 0.0 mm
05:42 4.5 °C 4.1 °C 1017.2 hPa Calm   3.2 km/h 97 % 0.0 mm
05:47 4.4 °C 4.0 °C 1017.5 hPa Calm   3.2 km/h 97 % 0.0 mm
05:52 4.3 °C 3.9 °C 1017.5 hPa Calm   3.2 km/h 97 % 0.0 mm
05:57 4.1 °C 3.7 °C 1017.5 hPa WSW 1.6 km/h 1.6 km/h 97 % 0.0 mm
06:02 4.0 °C 3.6 °C 1017.2 hPa Calm   3.2 km/h 97 % 0.0 mm
06:12 3.5 °C 2.9 °C 1017.5 hPa Calm   3.2 km/h 96 % 0.0 mm
06:17 3.4 °C 3.0 °C 1017.5 hPa Calm   1.6 km/h 97 % 0.0 mm
06:22 3.6 °C 3.2 °C 1017.5 hPa SW 1.6 km/h 1.6 km/h 97 % 0.0 mm
06:27 3.8 °C 3.5 °C 1017.2 hPa Calm   4.8 km/h 98 % 0.0 mm
06:32 3.6 °C 3.2 °C 1017.2 hPa Calm   4.8 km/h 97 % 0.0 mm
06:37 3.2 °C 2.8 °C 1017.2 hPa Calm   4.8 km/h 97 % 0.0 mm
06:42 3.2 °C 2.8 °C 1017.5 hPa SW 1.6 km/h 1.6 km/h 97 % 0.0 mm
06:47 3.4 °C 3.1 °C 1017.5 hPa Calm   1.6 km/h 98 % 0.0 mm
06:52 3.8 °C 3.5 °C 1017.5 hPa Calm   1.6 km/h 98 % 0.0 mm
07:02 4.0 °C 3.7 °C 1017.5 hPa Calm   3.2 km/h 98 % 0.0 mm
07:07 3.9 °C 3.6 °C 1017.2 hPa Calm   3.2 km/h 98 % 0.0 mm
07:12 3.6 °C 3.2 °C 1017.2 hPa Calm   1.6 km/h 97 % 0.0 mm
07:17 3.4 °C 3.0 °C 1017.2 hPa Calm   1.6 km/h 97 % 0.0 mm
07:22 3.1 °C 2.5 °C 1017.2 hPa Calm   1.6 km/h 96 % 0.0 mm
07:32 2.6 °C 2.0 °C 1017.2 hPa Calm   1.6 km/h 96 % 0.0 mm
07:42 2.3 °C 1.9 °C 1017.2 hPa Calm   1.6 km/h 97 % 0.0 mm
07:47 2.3 °C 1.9 °C 1017.2 hPa Calm     97 % 0.0 mm
07:52 2.2 °C 1.8 °C 1017.2 hPa Calm     97 % 0.0 mm
07:57 2.2 °C 1.8 °C 1017.2 hPa Calm     97 % 0.0 mm
08:02 2.2 °C 1.8 °C 1017.2 hPa Calm     97 % 0.0 mm
08:07 2.7 °C 2.4 °C 1017.2 hPa Calm     98 % 0.0 mm
08:12 2.9 °C 2.6 °C 1017.2 hPa Calm     98 % 0.0 mm
08:17 3.1 °C 2.8 °C 1017.2 hPa Calm     98 % 0.0 mm
08:22 3.3 °C 3.0 °C 1017.2 hPa Calm     98 % 0.0 mm
08:27 3.6 °C 3.3 °C 1017.2 hPa Calm   1.6 km/h 98 % 0.0 mm
08:32 3.7 °C 3.4 °C 1017.2 hPa Calm   1.6 km/h 98 % 0.0 mm
08:37 3.9 °C 3.6 °C 1017.2 hPa Calm   1.6 km/h 98 % 0.0 mm
08:42 4.1 °C 3.8 °C 1017.2 hPa Calm   1.6 km/h 98 % 0.0 mm
08:47 4.2 °C 3.9 °C 1017.2 hPa Calm   1.6 km/h 98 % 0.0 mm
08:52 4.2 °C 3.9 °C 1017.2 hPa Calm   1.6 km/h 98 % 0.0 mm
08:57 4.2 °C 3.9 °C 1017.2 hPa Calm   1.6 km/h 98 % 0.0 mm
09:02 4.1 °C 3.8 °C 1017.2 hPa Calm   1.6 km/h 98 % 0.0 mm
09:07 4.1 °C 3.8 °C 1017.2 hPa Calm     98 % 0.0 mm
09:12 3.9 °C 3.6 °C 1017.2 hPa Calm     98 % 0.0 mm
09:17 3.9 °C 3.6 °C 1016.8 hPa Calm     98 % 0.0 mm
09:22 3.8 °C 3.4 °C 1016.8 hPa Calm     97 % 0.0 mm
09:27 3.6 °C 3.2 °C 1016.8 hPa Calm     97 % 0.0 mm
09:32 3.6 °C 3.2 °C 1016.8 hPa Calm     97 % 0.0 mm
09:37 3.7 °C 3.4 °C 1016.5 hPa Calm     98 % 0.0 mm
09:42 3.9 °C 3.6 °C 1016.5 hPa Calm     98 % 0.0 mm
09:47 4.1 °C 3.8 °C 1016.5 hPa Calm     98 % 0.0 mm
09:52 4.6 °C 4.3 °C 1016.5 hPa Calm   1.6 km/h 98 % 0.0 mm
09:57 5.1 °C 4.8 °C 1016.1 hPa Calm   1.6 km/h 98 % 0.0 mm
10:02 5.4 °C 5.1 °C 1016.1 hPa Calm   1.6 km/h 98 % 0.0 mm
10:12 5.9 °C 5.5 °C 1016.1 hPa WSW 1.6 km/h 1.6 km/h 97 % 0.0 mm
10:17 6.2 °C 5.8 °C 1016.1 hPa Calm   3.2 km/h 97 % 0.0 mm
10:22 6.5 °C 5.9 °C 1015.8 hPa Calm   3.2 km/h 96 % 0.0 mm
10:32 7.1 °C 6.4 °C 1015.8 hPa Calm   3.2 km/h 95 % 0.0 mm
10:37 7.5 °C 6.6 °C 1015.8 hPa Calm   3.2 km/h 94 % 0.0 mm
10:42 8.0 °C 6.8 °C 1015.8 hPa Calm   4.8 km/h 92 % 0.0 mm
10:47 8.4 °C 6.9 °C 1015.5 hPa West 1.6 km/h 4.8 km/h 90 % 0.0 mm
10:52 8.6 °C 6.9 °C 1015.5 hPa Calm   4.8 km/h 89 % 0.0 mm
11:02 9.1 °C 7.2 °C 1015.5 hPa Calm   3.2 km/h 88 % 0.0 mm
11:07 9.4 °C 7.5 °C 1015.5 hPa Calm   4.8 km/h 88 % 0.0 mm
11:12 9.7 °C 7.5 °C 1015.1 hPa West 1.6 km/h 6.4 km/h 86 % 0.0 mm
11:17 9.8 °C 7.4 °C 1015.1 hPa WSW 3.2 km/h 6.4 km/h 85 % 0.0 mm
11:22 9.9 °C 7.5 °C 1015.1 hPa WNW 4.8 km/h 6.4 km/h 85 % 0.0 mm
11:27 10.1 °C 7.7 °C 1015.1 hPa West 6.4 km/h 8.0 km/h 85 % 0.0 mm
11:32 10.2 °C 7.4 °C 1014.8 hPa WSW 1.6 km/h 8.0 km/h 83 % 0.0 mm
11:37 10.4 °C 7.6 °C 1014.8 hPa Calm   9.7 km/h 83 % 0.0 mm
11:42 10.5 °C 7.7 °C 1014.8 hPa NNW 3.2 km/h 9.7 km/h 83 % 0.0 mm
11:47 10.7 °C 7.9 °C 1014.8 hPa Calm   8.0 km/h 83 % 0.0 mm
11:52 10.9 °C 7.8 °C 1014.4 hPa WNW 1.6 km/h 8.0 km/h 81 % 0.0 mm
11:57 11.2 °C 8.2 °C 1014.4 hPa West 1.6 km/h 9.7 km/h 82 % 0.0 mm
12:02 11.4 °C 8.4 °C 1014.4 hPa West 1.6 km/h 9.7 km/h 82 % 0.0 mm
12:07 11.4 °C 8.1 °C 1014.1 hPa West 4.8 km/h 9.7 km/h 80 % 0.0 mm
12:12 11.6 °C 8.5 °C 1014.1 hPa West 1.6 km/h 9.7 km/h 81 % 0.0 mm
12:17 11.7 °C 7.8 °C 1013.8 hPa West 3.2 km/h 19.3 km/h 77 % 0.0 mm
12:27 12.0 °C 8.3 °C 1013.8 hPa SSW 1.6 km/h 19.3 km/h 78 % 0.0 mm
12:32 12.2 °C 8.5 °C 1013.4 hPa WSW 3.2 km/h 12.9 km/h 78 % 0.0 mm
12:42 12.6 °C 7.7 °C 1013.4 hPa WSW 4.8 km/h 12.9 km/h 72 % 0.0 mm
12:47 12.7 °C 8.4 °C 1013.1 hPa West 4.8 km/h 12.9 km/h 75 % 0.0 mm
13:02 13.2 °C 8.5 °C 1012.8 hPa West 4.8 km/h 14.5 km/h 73 % 0.0 mm
13:07 13.3 °C 8.8 °C 1012.8 hPa WSW 1.6 km/h 11.3 km/h 74 % 0.0 mm
13:12 13.4 °C 8.9 °C 1012.4 hPa SW 1.6 km/h 11.3 km/h 74 % 0.0 mm
13:17 13.5 °C 8.1 °C 1012.4 hPa West 3.2 km/h 14.5 km/h 70 % 0.0 mm
13:22 13.6 °C 8.4 °C 1012.1 hPa SE 4.8 km/h 14.5 km/h 71 % 0.0 mm
13:27 13.7 °C 8.3 °C 1011.7 hPa West 1.6 km/h 14.5 km/h 70 % 0.0 mm
13:32 13.9 °C 8.9 °C 1011.7 hPa NNE 1.6 km/h 12.9 km/h 72 % 0.0 mm
13:37 13.9 °C 9.1 °C 1011.7 hPa WSW 3.2 km/h 12.9 km/h 73 % 0.0 mm
13:42 14.2 °C 8.8 °C 1011.4 hPa WSW 6.4 km/h 12.9 km/h 70 % 0.0 mm
13:47 14.3 °C 8.5 °C 1011.4 hPa WSW 4.8 km/h 11.3 km/h 68 % 0.0 mm
13:52 14.4 °C 8.3 °C 1011.1 hPa WNW 8.0 km/h 16.1 km/h 67 % 0.0 mm
13:57 14.4 °C 8.3 °C 1011.1 hPa NW 1.6 km/h 16.1 km/h 67 % 0.0 mm
14:02 14.6 °C 9.0 °C 1010.7 hPa WSW 6.4 km/h 16.1 km/h 69 % 0.0 mm
14:07 14.7 °C 8.2 °C 1010.7 hPa WSW 6.4 km/h 16.1 km/h 65 % 0.0 mm
14:12 14.7 °C 8.6 °C 1010.4 hPa WSW 4.8 km/h 16.1 km/h 67 % 0.0 mm
14:17 14.8 °C 8.3 °C 1010.4 hPa SW 9.7 km/h 11.3 km/h 65 % 0.0 mm
14:22 14.8 °C 9.2 °C 1010.4 hPa West 4.8 km/h 12.9 km/h 69 % 0.0 mm
14:27 14.9 °C 8.1 °C 1010.0 hPa WSW 4.8 km/h 12.9 km/h 64 % 0.0 mm
14:32 14.9 °C 7.4 °C 1010.0 hPa WNW 3.2 km/h 12.9 km/h 61 % 0.0 mm
14:37 14.9 °C 8.4 °C 1010.0 hPa West 4.8 km/h 17.7 km/h 65 % 0.0 mm
14:42 15.1 °C 8.8 °C 1009.7 hPa West 3.2 km/h 17.7 km/h 66 % 0.0 mm
14:47 15.2 °C 8.9 °C 1009.4 hPa West 1.6 km/h 17.7 km/h 66 % 0.0 mm
14:52 15.2 °C 8.7 °C 1009.4 hPa WSW 4.8 km/h 12.9 km/h 65 % 0.0 mm
14:57 15.3 °C 9.0 °C 1009.4 hPa West 3.2 km/h 14.5 km/h 66 % 0.0 mm
15:02 15.3 °C 8.3 °C 1009.4 hPa SE 3.2 km/h 14.5 km/h 63 % 0.0 mm
15:07 15.3 °C 8.5 °C 1009.0 hPa SW 3.2 km/h 14.5 km/h 64 % 0.0 mm
15:12 15.4 °C 9.1 °C 1009.0 hPa WNW 4.8 km/h 12.9 km/h 66 % 0.0 mm
15:17 15.3 °C 8.3 °C 1008.7 hPa WSW 9.7 km/h 12.9 km/h 63 % 0.0 mm
15:22 15.2 °C 7.5 °C 1008.7 hPa WSW 3.2 km/h 16.1 km/h 60 % 0.0 mm
15:27 15.2 °C 8.2 °C 1008.4 hPa NNW 1.6 km/h 32.2 km/h 63 % 0.0 mm
15:37 15.3 °C 8.3 °C 1008.4 hPa West 14.5 km/h 32.2 km/h 63 % 0.0 mm
15:42 15.3 °C 8.8 °C 1008.4 hPa WNW 3.2 km/h 16.1 km/h 65 % 0.0 mm
15:47 15.3 °C 7.3 °C 1008.0 hPa WSW 3.2 km/h 16.1 km/h 59 % 0.0 mm
15:57 15.4 °C 8.2 °C 1007.7 hPa West 4.8 km/h 14.5 km/h 62 % 0.0 mm
16:02 15.3 °C 8.1 °C 1007.3 hPa WSW 4.8 km/h 14.5 km/h 62 % 0.0 mm
16:07 15.2 °C 7.5 °C 1007.3 hPa West 4.8 km/h 12.9 km/h 60 % 0.0 mm
16:12 15.1 °C 7.6 °C 1007.3 hPa West 6.4 km/h 16.1 km/h 61 % 0.0 mm
16:17 15.1 °C 7.6 °C 1007.3 hPa West 3.2 km/h 16.1 km/h 61 % 0.0 mm
16:22 15.1 °C 7.6 °C 1007.0 hPa WNW 1.6 km/h 12.9 km/h 61 % 0.0 mm
16:27 14.9 °C 7.9 °C 1007.0 hPa West 3.2 km/h 12.9 km/h 63 % 0.0 mm
16:32 14.8 °C 7.6 °C 1006.7 hPa West 4.8 km/h 11.3 km/h 62 % 0.0 mm
16:37 14.7 °C 7.0 °C 1006.3 hPa SW 6.4 km/h 11.3 km/h 60 % 0.0 mm
16:42 14.6 °C 7.2 °C 1006.3 hPa West 4.8 km/h 11.3 km/h 61 % 0.0 mm
16:47 14.4 °C 6.5 °C 1006.0 hPa West 4.8 km/h 11.3 km/h 59 % 0.0 mm
16:57 14.1 °C 6.7 °C 1006.0 hPa SSW 1.6 km/h 12.9 km/h 61 % 0.0 mm
17:02 14.0 °C 6.4 °C 1005.6 hPa West 4.8 km/h 17.7 km/h 60 % 0.0 mm
17:07 13.8 °C 6.4 °C 1005.6 hPa SW 9.7 km/h 17.7 km/h 61 % 0.0 mm
17:17 13.3 °C 6.4 °C 1005.3 hPa Calm   14.5 km/h 63 % 0.0 mm
17:22 13.2 °C 6.3 °C 1005.3 hPa SW 4.8 km/h 14.5 km/h 63 % 0.0 mm
17:27 12.9 °C 6.3 °C 1005.0 hPa WNW 1.6 km/h 9.7 km/h 64 % 0.0 mm
17:32 12.8 °C 6.2 °C 1005.0 hPa West 3.2 km/h 14.5 km/h 64 % 0.0 mm
17:37 12.7 °C 6.3 °C 1005.0 hPa WNW 4.8 km/h 14.5 km/h 65 % 0.0 mm
17:42 12.5 °C 6.1 °C 1005.0 hPa West 1.6 km/h 14.5 km/h 65 % 0.0 mm
17:47 12.4 °C 6.2 °C 1004.6 hPa West 9.7 km/h 14.5 km/h 66 % 0.0 mm
17:52 12.3 °C 6.1 °C 1004.6 hPa West 4.8 km/h 14.5 km/h 66 % 0.0 mm
17:57 12.1 °C 6.2 °C 1004.6 hPa West 4.8 km/h 11.3 km/h 67 % 0.0 mm
18:02 11.8 °C 5.9 °C 1004.6 hPa SW 3.2 km/h 9.7 km/h 67 % 0.0 mm
18:07 11.8 °C 6.1 °C 1004.6 hPa WSW 3.2 km/h 11.3 km/h 68 % 0.0 mm
18:12 11.8 °C 5.9 °C 1004.6 hPa Calm   11.3 km/h 67 % 0.0 mm
18:17 11.7 °C 6.0 °C 1004.3 hPa West 4.8 km/h 11.3 km/h 68 % 0.0 mm
18:22 11.8 °C 5.7 °C 1004.3 hPa SW 4.8 km/h 16.1 km/h 66 % 0.0 mm
18:27 11.8 °C 5.9 °C 1004.3 hPa WNW 1.6 km/h 16.1 km/h 67 % 0.0 mm
18:32 11.7 °C 5.8 °C 1004.3 hPa West 4.8 km/h 16.1 km/h 67 % 0.0 mm
18:42 11.5 °C 5.8 °C 1004.3 hPa West 4.8 km/h 14.5 km/h 68 % 0.0 mm
18:47 11.4 °C 5.7 °C 1004.3 hPa West 1.6 km/h 14.5 km/h 68 % 0.0 mm
18:52 11.2 °C 5.7 °C 1004.3 hPa WSW 3.2 km/h 9.7 km/h 69 % 0.0 mm
18:57 11.1 °C 6.0 °C 1004.3 hPa SW 1.6 km/h 8.0 km/h 71 % 0.0 mm
19:02 10.9 °C 5.8 °C 1004.3 hPa Calm   8.0 km/h 71 % 0.0 mm
19:07 11.0 °C 5.9 °C 1004.3 hPa West 3.2 km/h 12.9 km/h 71 % 0.0 mm
19:12 10.7 °C 5.9 °C 1004.3 hPa ESE 4.8 km/h 12.9 km/h 72 % 0.0 mm
19:17 10.9 °C 5.6 °C 1004.3 hPa Calm   16.1 km/h 70 % 0.0 mm
19:22 11.0 °C 5.7 °C 1003.9 hPa WSW 8.0 km/h 16.1 km/h 70 % 0.0 mm
19:27 11.1 °C 5.8 °C 1003.9 hPa WSW 4.8 km/h 22.5 km/h 70 % 0.0 mm
19:32 10.9 °C 5.6 °C 1003.9 hPa WNW 4.8 km/h 22.5 km/h 70 % 0.0 mm
19:37 10.8 °C 5.5 °C 1003.9 hPa WSW 3.2 km/h 22.5 km/h 70 % 0.0 mm
19:42 10.7 °C 5.7 °C 1003.9 hPa SW 3.2 km/h 12.9 km/h 71 % 0.0 mm
19:47 10.5 °C 5.7 °C 1003.9 hPa WSW 3.2 km/h 14.5 km/h 72 % 0.0 mm
19:52 10.3 °C 5.7 °C 1003.9 hPa West 3.2 km/h 14.5 km/h 73 % 0.0 mm
19:57 10.3 °C 5.5 °C 1003.9 hPa WNW 4.8 km/h 14.5 km/h 72 % 0.0 mm
20:02 10.3 °C 5.5 °C 1003.9 hPa WSW 3.2 km/h 12.9 km/h 72 % 0.0 mm
20:07 10.2 °C 5.6 °C 1003.9 hPa Calm   12.9 km/h 73 % 0.0 mm
20:12 10.2 °C 5.4 °C 1003.9 hPa West 6.4 km/h 11.3 km/h 72 % 0.0 mm
20:17 10.2 °C 5.4 °C 1003.9 hPa SSW 8.0 km/h 12.9 km/h 72 % 0.0 mm
20:22 10.2 °C 5.6 °C 1003.9 hPa WSW 3.2 km/h 12.9 km/h 73 % 0.0 mm
20:32 9.9 °C 5.5 °C 1003.6 hPa NW 1.6 km/h 11.3 km/h 74 % 0.0 mm
20:37 10.1 °C 5.5 °C 1003.6 hPa Calm   12.9 km/h 73 % 0.0 mm
20:42 10.1 °C 5.5 °C 1003.6 hPa Calm   12.9 km/h 73 % 0.0 mm
20:47 9.9 °C 5.5 °C 1003.6 hPa WSW 1.6 km/h 12.9 km/h 74 % 0.0 mm
20:52 9.8 °C 5.6 °C 1003.6 hPa WSW 1.6 km/h 9.7 km/h 75 % 0.0 mm
20:57 9.7 °C 5.5 °C 1003.3 hPa WSW 3.2 km/h 11.3 km/h 75 % 0.0 mm
21:02 9.7 °C 5.7 °C 1003.6 hPa West 3.2 km/h 11.3 km/h 76 % 0.0 mm
21:07 9.6 °C 5.6 °C 1003.3 hPa WSW 3.2 km/h 8.0 km/h 76 % 0.0 mm
21:17 9.7 °C 5.7 °C 1003.3 hPa West 1.6 km/h 9.7 km/h 76 % 0.0 mm
21:22 9.5 °C 5.7 °C 1003.3 hPa South 3.2 km/h 9.7 km/h 77 % 0.0 mm
21:32 9.7 °C 5.7 °C 1002.9 hPa Calm   12.9 km/h 76 % 0.0 mm
21:37 9.7 °C 5.7 °C 1002.9 hPa West 1.6 km/h 12.9 km/h 76 % 0.0 mm
21:42 9.6 °C 5.6 °C 1002.9 hPa SW 3.2 km/h 11.3 km/h 76 % 0.0 mm
21:47 9.5 °C 5.7 °C 1002.9 hPa West 1.6 km/h 9.7 km/h 77 % 0.0 mm
21:52 9.4 °C 5.6 °C 1002.9 hPa SSW 1.6 km/h 9.7 km/h 77 % 0.0 mm
21:57 9.3 °C 5.7 °C 1002.9 hPa West 3.2 km/h 8.0 km/h 78 % 0.0 mm
22:02 9.4 °C 5.8 °C 1002.9 hPa West 3.2 km/h 12.9 km/h 78 % 0.0 mm
22:07 9.3 °C 5.7 °C 1002.9 hPa WSW 3.2 km/h 12.9 km/h 78 % 0.0 mm
22:12 9.2 °C 5.6 °C 1002.9 hPa Calm   12.9 km/h 78 % 0.0 mm
22:17 9.1 °C 5.7 °C 1002.9 hPa SW 1.6 km/h 6.4 km/h 79 % 0.0 mm
22:22 9.1 °C 5.5 °C 1002.9 hPa Calm   4.8 km/h 78 % 0.0 mm
22:27 9.0 °C 5.6 °C 1002.9 hPa Calm   4.8 km/h 79 % 0.0 mm
22:32 8.9 °C 5.5 °C 1002.9 hPa SW 1.6 km/h 4.8 km/h 79 % 0.0 mm
22:37 8.9 °C 5.5 °C 1002.9 hPa Calm   3.2 km/h 79 % 0.0 mm
22:42 8.9 °C 5.5 °C 1002.9 hPa WSW 1.6 km/h 6.4 km/h 79 % 0.0 mm
22:47 9.1 °C 5.7 °C 1002.6 hPa Calm   6.4 km/h 79 % 0.0 mm
22:52 9.1 °C 5.7 °C 1002.6 hPa WSW 4.8 km/h 6.4 km/h 79 % 0.0 mm
22:57 9.1 °C 5.7 °C 1002.6 hPa SW 3.2 km/h 4.8 km/h 79 % 0.0 mm
23:02 9.1 °C 5.7 °C 1002.6 hPa Calm   4.8 km/h 79 % 0.0 mm
23:07 9.2 °C 5.7 °C 1002.3 hPa West 1.6 km/h 4.8 km/h 79 % 0.0 mm
23:17 9.4 °C 5.8 °C 1002.3 hPa WSW 1.6 km/h 9.7 km/h 78 % 0.0 mm
23:22 9.4 °C 5.8 °C 1002.3 hPa Calm   9.7 km/h 78 % 0.0 mm
23:32 9.3 °C 5.8 °C 1001.9 hPa WSW 1.6 km/h 9.7 km/h 79 % 0.0 mm
23:37 9.4 °C 5.9 °C 1001.9 hPa Calm   9.7 km/h 79 % 0.0 mm
23:42 9.4 °C 5.9 °C 1001.6 hPa West 1.6 km/h 6.4 km/h 79 % 0.0 mm
23:47 9.4 °C 5.9 °C 1001.6 hPa West 3.2 km/h 6.4 km/h 79 % 0.0 mm
23:52 9.5 °C 6.0 °C 1001.2 hPa West 1.6 km/h 6.4 km/h 79 % 0.0 mm
23:57 9.6 °C 6.1 °C 1001.2 hPa West 1.6 km/h 4.8 km/h 79 % 0.0 mm
Meteo18
Compliments of Weather Underground - 4 mb

Script developed by  Jim McMurry - jmcmurry@mwt.net Adapted for the template by  Wim van der Kuil - Leuven-Template.eu

You find our weather info also at:

European Weather Network

Weather Underground

Equipment we use:

Weather-station
Davis Vue

Weather-program
Meteohub

Weather-server
Raspberry PI 2 B+

Provider
1 and 1

Davis Vue

Meteohub

Raspberry PI 2 B+

1 and 1